Time;durP1;ratioP1;P1;durP2;ratioP2;P2;SDS_P1;SDS_P2;PMS_P1;PMS_P2;Temp;Humidity;BMP_temperature;BMP_pressure;BME280_temperature;BME280_humidity;BME280_pressure;Samples;Min_cycle;Max_cycle;Signal;HPM_P1;HPM_P2
2022/08/12 00:43:58;;;;;;;1.08;1.05;;;15.00;99.90;;;;;;5114912;28;20035;-78
2022/08/12 00:46:35;;;;;;;1.00;0.80;;;14.90;99.90;;;;;;5096652;28;20391;-78
2022/08/12 00:49:01;;;;;;;0.52;0.52;;;14.90;99.90;;;;;;5114392;28;20543;-78
2022/08/12 00:52:10;;;;;;;1.27;1.00;;;14.90;99.90;;;;;;5097257;28;20042;-77
2022/08/12 00:54:17;;;;;;;0.40;0.40;;;14.80;99.90;;;;;;5106249;28;20035;-77
2022/08/12 00:56:43;;;;;;;0.82;0.82;;;14.80;99.90;;;;;;5096291;28;20126;-77
2022/08/12 00:59:10;;;;;;;1.75;0.65;;;14.80;99.90;;;;;;5114355;28;20495;-77
2022/08/12 01:01:36;;;;;;;1.30;1.02;;;14.70;99.90;;;;;;5114742;28;20500;-79
2022/08/12 01:12:26;;;;;;;0.35;0.35;;;14.60;99.90;;;;;;5115764;28;20066;-78
2022/08/12 01:14:53;;;;;;;1.00;1.00;;;14.60;99.90;;;;;;5115483;28;20024;-78
2022/08/12 01:17:21;;;;;;;0.40;0.40;;;14.50;99.90;;;;;;5097105;28;20024;-77
2022/08/12 01:19:51;;;;;;;4.57;1.30;;;14.50;99.90;;;;;;5096579;28;20027;-77
2022/08/12 01:22:33;;;;;;;1.27;0.77;;;14.50;99.90;;;;;;5096283;28;20050;-78
2022/08/12 01:25:31;;;;;;;0.85;0.80;;;14.40;99.90;;;;;;5114390;28;20028;-78
2022/08/12 01:28:00;;;;;;;0.55;0.55;;;14.30;99.90;;;;;;5096869;28;20063;-78
2022/08/12 01:30:32;;;;;;;0.80;0.80;;;14.20;99.90;;;;;;5095985;28;20035;-78
2022/08/12 01:33:01;;;;;;;1.27;0.65;;;14.20;99.90;;;;;;5114215;28;20023;-78
2022/08/12 01:35:31;;;;;;;1.15;0.75;;;14.30;99.90;;;;;;5095601;28;20032;-78
2022/08/12 01:38:04;;;;;;;0.73;0.73;;;14.40;99.90;;;;;;5096958;28;20507;-77
2022/08/12 01:40:33;;;;;;;2.67;0.50;;;14.40;99.90;;;;;;5100566;28;20361;-77
2022/08/12 01:43:09;;;;;;;0.30;0.30;;;14.30;99.90;;;;;;5118790;28;20016;-77
2022/08/12 01:45:51;;;;;;;0.60;0.60;;;14.20;99.90;;;;;;5118744;28;20031;-77
2022/08/12 01:48:52;;;;;;;0.57;0.50;;;14.00;99.90;;;;;;5118623;28;20537;-78
2022/08/12 01:51:42;;;;;;;2.05;0.50;;;13.90;99.90;;;;;;5100074;28;20031;-77
2022/08/12 01:54:08;;;;;;;;;;;13.80;99.90;;;;;;5100356;28;20488;-79
2022/08/12 01:56:49;;;;;;;0.70;0.70;;;13.80;99.90;;;;;;5117854;28;19904;-77
2022/08/12 01:59:46;;;;;;;2.83;1.33;;;13.80;99.90;;;;;;5117656;28;20410;-78
2022/08/12 02:02:20;;;;;;;1.08;1.08;;;13.80;99.90;;;;;;5090055;28;20039;-77
2022/08/12 02:11:28;;;;;;;0.70;0.70;;;13.70;99.90;;;;;;5085369;28;20529;-77
2022/08/12 02:14:12;;;;;;;9.88;0.77;;;13.70;99.90;;;;;;5117274;28;20031;-77
2022/08/12 02:16:40;;;;;;;2.25;0.85;;;13.60;99.90;;;;;;5098846;28;20455;-77
2022/08/12 02:19:24;;;;;;;1.35;1.25;;;13.60;99.90;;;;;;5117599;28;20024;-78
2022/08/12 02:22:22;;;;;;;0.65;0.65;;;13.60;99.90;;;;;;5117439;28;20027;-79
2022/08/12 02:24:50;;;;;;;0.55;0.55;;;13.50;99.90;;;;;;5099592;28;20020;-77
2022/08/12 02:27:19;;;;;;;0.98;0.65;;;13.40;99.90;;;;;;5117552;28;20019;-78
2022/08/12 02:29:45;;;;;;;2.03;1.90;;;13.30;99.90;;;;;;5098797;28;20032;-77
2022/08/12 02:32:12;;;;;;;3.63;1.55;;;13.30;99.90;;;;;;5099172;28;20034;-78
2022/08/12 02:34:38;;;;;;;0.75;0.63;;;;;;;;;;5117387;28;20429;-77
2022/08/12 02:37:09;;;;;;;0.52;0.52;;;14.50;99.90;;;;;;5098758;28;20023;-77
2022/08/12 02:39:38;;;;;;;0.70;0.65;;;13.20;99.90;;;;;;5116893;28;20537;-78
2022/08/12 02:42:05;;;;;;;0.75;0.75;;;13.20;99.90;;;;;;5117196;28;20015;-78
2022/08/12 02:44:39;;;;;;;0.68;0.68;;;13.20;99.90;;;;;;5099007;28;20035;-77
2022/08/12 02:47:07;;;;;;;0.45;0.45;;;13.20;99.90;;;;;;5098827;28;20020;-78
2022/08/12 02:49:39;;;;;;;1.38;1.23;;;13.20;99.90;;;;;;5097949;28;20027;-78
2022/08/12 02:52:06;;;;;;;0.70;0.63;;;13.20;99.90;;;;;;5116817;28;20039;-77
2022/08/12 02:54:33;;;;;;;4.75;1.13;;;13.10;99.90;;;;;;5098588;28;20058;-77
2022/08/12 02:56:59;;;;;;;0.68;0.68;;;13.00;99.90;;;;;;5098468;28;20057;-77
2022/08/12 02:59:28;;;;;;;0.95;0.95;;;13.00;99.90;;;;;;5116739;28;20020;-78
2022/08/12 03:02:02;;;;;;;0.30;0.30;;;13.00;99.90;;;;;;5116684;28;20043;-77
2022/08/12 03:04:52;;;;;;;0.63;0.63;;;12.90;99.90;;;;;;5116557;28;20015;-77
2022/08/12 03:07:25;;;;;;;2.22;0.70;;;12.90;99.90;;;;;;5098190;28;20172;-77
2022/08/12 03:10:08;;;;;;;1.20;1.15;;;12.90;99.90;;;;;;5098049;28;20057;-77
2022/08/12 03:12:40;;;;;;;0.93;0.93;;;12.90;99.90;;;;;;5098396;28;20020;-78
2022/08/12 03:15:10;;;;;;;0.52;0.52;;;12.90;99.90;;;;;;5098059;28;20054;-77
2022/08/12 03:17:59;;;;;;;0.85;0.85;;;12.80;99.90;;;;;;5098145;28;20051;-77
2022/08/12 03:20:25;;;;;;;0.50;0.50;;;12.80;99.90;;;;;;5097984;28;20023;-77
2022/08/12 03:22:51;;;;;;;0.28;0.28;;;12.80;99.90;;;;;;5098329;28;20024;-77
2022/08/12 03:25:26;;;;;;;1.10;1.00;;;13.40;99.90;;;;;;5098298;28;20106;-78
2022/08/12 03:27:57;;;;;;;0.47;0.47;;;12.60;99.90;;;;;;5116605;28;20112;-77
2022/08/12 03:30:32;;;;;;;1.00;1.00;;;12.50;99.90;;;;;;5116183;28;20071;-77
2022/08/12 03:33:00;;;;;;;0.50;0.50;;;12.40;99.90;;;;;;5115692;28;20051;-77
2022/08/12 03:35:29;;;;;;;1.52;1.42;;;12.40;99.90;;;;;;5115572;28;20030;-76
2022/08/12 03:38:04;;;;;;;0.70;0.70;;;12.40;99.90;;;;;;5115517;28;20022;-77
2022/08/12 04:00:34;;;;;;;1.17;1.08;;;12.30;99.90;;;;;;5115008;28;20395;-77
2022/08/12 04:03:50;;;;;;;1.15;0.77;;;12.20;99.90;;;;;;5114501;28;20019;-77
2022/08/12 04:05:48;;;;;;;0.60;0.60;;;12.20;99.90;;;;;;5115123;28;20061;-79
2022/08/12 04:08:17;;;;;;;0.50;0.47;;;12.10;99.90;;;;;;5096950;28;20028;-77
2022/08/12 04:13:27;;;;;;;1.52;0.95;;;12.10;99.90;;;;;;5115400;28;20428;-79
2022/08/12 04:15:57;;;;;;;0.63;0.63;;;12.10;99.90;;;;;;5115206;28;20032;-77
2022/08/12 04:18:24;;;;;;;0.77;0.77;;;12.10;99.90;;;;;;5096846;28;20026;-78
2022/08/12 04:20:51;;;;;;;1.15;1.13;;;12.10;99.90;;;;;;5096639;28;20032;-78
2022/08/12 04:23:17;;;;;;;1.58;1.48;;;12.10;99.90;;;;;;5096854;28;20023;-77
2022/08/12 04:25:43;;;;;;;0.80;0.80;;;12.00;99.90;;;;;;5096621;28;20020;-77
2022/08/12 04:28:11;;;;;;;1.27;1.17;;;12.00;99.90;;;;;;5096795;28;20027;-77
2022/08/12 04:30:38;;;;;;;0.57;0.57;;;11.90;99.90;;;;;;5096677;28;20031;-77
2022/08/12 04:33:08;;;;;;;0.73;0.73;;;12.00;99.90;;;;;;5096419;28;20016;-76
2022/08/12 04:35:34;;;;;;;0.95;0.95;;;11.90;99.90;;;;;;5114429;28;20028;-77
2022/08/12 04:38:01;;;;;;;1.63;0.60;;;11.90;99.90;;;;;;5114410;28;20030;-77
2022/08/12 04:40:33;;;;;;;0.77;0.77;;;12.00;99.90;;;;;;5114414;28;20103;-77
2022/08/12 04:43:02;;;;;;;0.50;0.50;;;11.90;99.90;;;;;;5114240;28;20063;-77
2022/08/12 04:45:29;;;;;;;0.85;0.85;;;12.00;99.90;;;;;;5114430;28;20384;-77
2022/08/12 04:47:55;;;;;;;1.27;1.17;;;12.00;99.90;;;;;;5114599;28;20023;-79
2022/08/12 04:50:23;;;;;;;0.88;0.88;;;12.10;99.90;;;;;;5096407;28;20038;-78
2022/08/12 04:52:50;;;;;;;0.90;0.80;;;12.10;99.90;;;;;;5114505;28;20058;-77
2022/08/12 04:55:17;;;;;;;0.77;0.77;;;12.10;99.90;;;;;;5096484;28;20027;-77
2022/08/12 04:57:43;;;;;;;0.93;0.90;;;12.20;99.90;;;;;;5096772;28;20023;-78
2022/08/12 05:00:12;;;;;;;0.40;0.40;;;12.20;99.90;;;;;;5114747;28;20027;-77
2022/08/12 05:02:38;;;;;;;0.88;0.88;;;12.20;99.90;;;;;;5096345;28;20110;-77
2022/08/12 05:05:07;;;;;;;0.55;0.55;;;12.30;99.90;;;;;;5114501;28;20102;-77
2022/08/12 05:07:34;;;;;;;1.37;1.27;;;12.20;99.90;;;;;;5096552;28;20024;-77
2022/08/12 05:10:00;;;;;;;0.77;0.70;;;12.30;99.90;;;;;;5096366;28;20131;-77
2022/08/12 05:12:31;;;;;;;1.02;0.93;;;12.30;99.90;;;;;;5096119;28;20028;-78
2022/08/12 05:14:58;;;;;;;0.25;0.25;;;12.40;99.90;;;;;;5114836;28;20039;-77
2022/08/12 05:17:24;;;;;;;1.48;0.95;;;12.50;99.90;;;;;;5096382;28;20020;-78
2022/08/12 05:19:50;;;;;;;0.98;0.88;;;12.50;99.90;;;;;;5114733;28;20027;-77
2022/08/12 05:22:16;;;;;;;0.60;0.60;;;12.60;99.90;;;;;;5096594;28;20020;-77
2022/08/12 05:24:43;;;;;;;0.85;0.60;;;12.70;99.90;;;;;;5114563;28;20114;-77
2022/08/12 05:27:10;;;;;;;0.50;0.50;;;12.70;99.90;;;;;;5096421;28;20490;-77
2022/08/12 05:29:38;;;;;;;1.90;1.42;;;12.80;99.90;;;;;;5096265;28;20127;-78
2022/08/12 05:32:06;;;;;;;0.47;0.43;;;12.90;99.90;;;;;;5096540;28;20030;-77
2022/08/12 05:34:33;;;;;;;0.90;0.90;;;13.00;99.90;;;;;;5096512;28;20152;-78
2022/08/12 05:37:00;;;;;;;1.20;0.73;;;13.20;99.90;;;;;;5096491;28;20020;-77
2022/08/12 05:39:26;;;;;;;0.40;0.40;;;13.30;99.90;;;;;;5114819;28;20411;-76
2022/08/12 05:41:52;;;;;;;0.75;0.43;;;13.40;99.90;;;;;;5096848;28;20027;-78
2022/08/12 05:44:18;;;;;;;1.95;0.88;;;13.50;99.90;;;;;;5096704;28;20046;-78
2022/08/12 05:46:44;;;;;;;1.08;1.00;;;13.70;99.90;;;;;;5114788;28;20476;-78
2022/08/12 05:49:10;;;;;;;0.68;0.68;;;13.90;99.90;;;;;;5113901;28;20051;-77
2022/08/12 05:51:37;;;;;;;1.77;1.17;;;14.00;99.90;;;;;;5113465;28;20028;-77
2022/08/12 05:54:03;;;;;;;0.55;0.55;;;14.20;99.90;;;;;;5095118;28;20039;-77
2022/08/12 05:56:34;;;;;;;0.65;0.63;;;14.40;99.90;;;;;;5113536;28;20027;-77
2022/08/12 05:59:02;;;;;;;2.33;0.63;;;14.80;99.90;;;;;;5095195;28;20031;-78
2022/08/12 06:01:29;;;;;;;0.28;0.28;;;14.80;99.90;;;;;;5113303;28;20031;-77
2022/08/12 06:03:55;;;;;;;3.80;0.77;;;15.20;99.90;;;;;;5113439;28;20324;-77
2022/08/12 06:06:22;;;;;;;0.65;0.40;;;15.20;99.90;;;;;;5095195;28;20201;-78
2022/08/12 06:08:52;;;;;;;0.63;0.63;;;15.40;99.90;;;;;;5112916;28;20028;-78
2022/08/12 06:11:23;;;;;;;0.95;0.82;;;15.50;99.90;;;;;;5094913;28;20392;-78
2022/08/12 06:13:51;;;;;;;0.57;0.57;;;15.70;99.90;;;;;;5113156;28;20034;-78
2022/08/12 06:16:20;;;;;;;0.73;0.73;;;15.90;99.90;;;;;;5094723;28;20415;-78
2022/08/12 06:18:47;;;;;;;0.63;0.63;;;16.00;99.90;;;;;;5112722;28;20038;-78
2022/08/12 06:21:15;;;;;;;0.40;0.40;;;16.30;99.90;;;;;;5094785;28;20030;-78
2022/08/12 06:23:42;;;;;;;0.50;0.50;;;16.50;99.90;;;;;;5094753;28;20553;-78
2022/08/12 06:26:10;;;;;;;0.98;0.93;;;16.60;99.90;;;;;;5115616;28;20027;-79
2022/08/12 06:28:39;;;;;;;0.32;0.32;;;16.80;99.90;;;;;;5098289;28;20345;-78
2022/08/12 06:31:05;;;;;;;0.95;0.70;;;17.00;99.90;;;;;;5116464;28;20511;-79
2022/08/12 06:33:32;;;;;;;9.20;0.93;;;17.20;99.90;;;;;;5116394;28;20055;-79
2022/08/12 06:35:59;;;;;;;0.35;0.35;;;17.40;99.90;;;;;;5098242;28;20020;-78
2022/08/12 06:38:27;;;;;;;0.75;0.70;;;17.60;99.90;;;;;;5098043;28;20020;-79
2022/08/12 06:43:43;;;;;;;1.02;0.75;;;17.80;99.90;;;;;;5116691;28;20081;-79
2022/08/12 06:46:10;;;;;;;0.40;0.40;;;18.10;99.90;;;;;;5116318;28;20106;-79
2022/08/12 06:48:36;;;;;;;0.60;0.60;;;18.30;99.90;;;;;;5097984;28;20028;-82
2022/08/12 06:51:03;;;;;;;0.30;0.30;;;18.40;99.90;;;;;;5116389;28;20027;-80
2022/08/12 06:53:31;;;;;;;0.47;0.47;;;18.60;99.90;;;;;;5097752;28;20048;-79
2022/08/12 06:55:59;;;;;;;0.70;0.70;;;18.70;99.90;;;;;;5098160;28;20066;-82
2022/08/12 06:58:26;;;;;;;0.22;0.22;;;18.90;99.90;;;;;;5098143;28;20020;-81
2022/08/12 07:00:52;;;;;;;0.63;0.63;;;18.90;99.90;;;;;;5098040;28;20502;-82
2022/08/12 07:03:26;;;;;;;1.42;1.33;;;19.00;99.90;;;;;;5098186;28;20471;-82
2022/08/12 07:05:54;;;;;;;0.70;0.70;;;19.40;99.90;;;;;;5116179;28;20038;-82
2022/08/12 07:08:20;;;;;;;0.20;0.20;;;20.40;98.40;;;;;;5101318;28;20022;-82
2022/08/12 07:11:00;;;;;;;0.60;0.60;;;22.00;92.20;;;;;;5099398;28;20031;-82
2022/08/12 07:13:27;;;;;;;0.40;0.40;;;23.40;79.20;;;;;;5103103;28;20065;-82
2022/08/12 07:15:55;;;;;;;0.15;0.15;;;24.70;69.30;;;;;;5100832;28;20525;-81
2022/08/12 07:18:26;;;;;;;1.85;0.40;;;25.90;64.80;;;;;;5100103;28;20055;-80
2022/08/12 07:20:52;;;;;;;0.25;0.20;;;27.20;60.40;;;;;;5097268;28;20089;-80
2022/08/12 07:23:17;;;;;;;0.30;0.30;;;28.50;56.40;;;;;;5097300;28;20035;-79
2022/08/12 07:25:43;;;;;;;4.07;0.80;;;28.90;52.60;;;;;;5097481;28;20111;-79
2022/08/12 07:28:12;;;;;;;0.28;0.28;;;28.80;52.10;;;;;;5115482;28;20015;-81
2022/08/12 07:30:40;;;;;;;0.35;0.35;;;28.20;52.20;;;;;;5115455;28;20081;-77
2022/08/12 07:33:09;;;;;;;0.65;0.63;;;27.00;54.50;;;;;;5115497;28;20507;-78
2022/08/12 07:35:44;;;;;;;2.35;0.65;;;25.90;55.30;;;;;;5096522;28;20024;-79
2022/08/12 07:38:26;;;;;;;0.68;0.68;;;25.60;56.30;;;;;;5114669;28;20016;-79
2022/08/12 07:41:19;;;;;;;0.60;0.60;;;25.20;58.00;;;;;;5099928;28;20120;-81
2022/08/12 07:43:52;;;;;;;2.95;1.15;;;25.10;58.60;;;;;;5093482;28;20038;-83
2022/08/12 07:46:21;;;;;;;0.30;0.30;;;24.30;59.60;;;;;;5096452;28;20379;-81
2022/08/12 07:48:51;;;;;;;0.50;0.50;;;23.80;61.10;;;;;;5096451;28;20468;-80
2022/08/12 07:51:18;;;;;;;2.38;0.85;;;23.60;61.60;;;;;;5097026;28;20031;-81
2022/08/12 07:53:45;;;;;;;1.63;0.75;;;23.30;62.80;;;;;;5096980;28;20142;-81
2022/08/12 07:56:11;;;;;;;0.45;0.45;;;23.40;63.00;;;;;;5097042;28;20024;-80
2022/08/12 07:58:39;;;;;;;0.30;0.30;;;24.60;61.20;;;;;;5096951;28;20392;-80
2022/08/12 08:01:11;;;;;;;0.30;0.30;;;26.10;58.70;;;;;;5114887;28;20476;-81
2022/08/12 08:04:54;;;;;;;0.50;0.50;;;27.40;54.20;;;;;;5098181;28;20438;-81
2022/08/12 08:06:30;;;;;;;0.57;0.38;;;28.50;53.00;;;;;;5114623;28;20059;-80
2022/08/12 08:08:59;;;;;;;0.40;0.40;;;29.20;51.30;;;;;;5096347;28;20034;-78
2022/08/12 08:14:10;;;;;;;0.47;0.47;;;30.30;49.00;;;;;;5114837;28;20058;-77
2022/08/12 08:16:39;;;;;;;0.35;0.20;;;31.20;46.90;;;;;;5114500;28;20024;-78
2022/08/12 08:19:07;;;;;;;;;;;31.20;46.50;;;;;;5114756;28;20039;-77
2022/08/12 08:21:34;;;;;;;6.13;0.43;;;31.30;46.70;;;;;;5095626;28;19910;-78
2022/08/12 08:24:13;;;;;;;0.98;0.20;;;31.00;45.10;;;;;;5096039;28;20546;-78
2022/08/12 08:26:40;;;;;;;0.73;0.40;;;31.00;45.90;;;;;;5114203;28;20020;-78
2022/08/12 08:29:07;;;;;;;0.35;0.17;;;31.20;44.90;;;;;;5095888;28;20023;-78
2022/08/12 08:31:34;;;;;;;0.47;0.20;;;31.40;45.50;;;;;;5095790;28;20028;-78
2022/08/12 08:34:00;;;;;;;1.83;0.25;;;32.00;43.80;;;;;;5114090;28;20023;-78
2022/08/12 08:36:26;;;;;;;0.55;0.10;;;31.90;44.90;;;;;;5114098;28;20125;-77
2022/08/12 08:38:53;;;;;;;0.20;0.20;;;31.00;44.40;;;;;;5095839;28;20026;-77
2022/08/12 08:44:03;;;;;;;0.20;0.20;;;31.10;44.10;;;;;;5114350;28;20116;-78
2022/08/12 08:46:31;;;;;;;0.13;0.13;;;31.10;44.80;;;;;;5113910;28;20019;-78
2022/08/12 08:48:59;;;;;;;0.30;0.30;;;31.00;44.00;;;;;;5095145;28;20034;-78
2022/08/12 08:51:25;;;;;;;0.20;0.20;;;30.80;44.30;;;;;;5114031;28;20020;-77
2022/08/12 08:53:52;;;;;;;0.30;0.30;;;30.50;45.60;;;;;;5095284;28;20051;-77
2022/08/12 08:56:19;;;;;;;2.17;1.02;;;30.30;45.90;;;;;;5095587;28;20076;-77
2022/08/12 08:58:44;;;;;;;0.10;0.10;;;30.60;44.30;;;;;;5113686;28;20024;-78
2022/08/12 09:01:20;;;;;;;0.20;0.20;;;30.40;45.50;;;;;;5095521;28;20031;-78
2022/08/12 09:03:46;;;;;;;0.20;0.20;;;30.00;43.80;;;;;;5095592;28;20063;-79
2022/08/12 09:06:13;;;;;;;0.10;0.10;;;30.00;44.40;;;;;;5095428;28;20027;-78
2022/08/12 09:08:43;;;;;;;0.20;0.10;;;28.80;46.30;;;;;;5113120;28;20016;-78
2022/08/12 09:13:53;;;;;;;1.58;0.30;;;29.40;45.80;;;;;;5113103;28;20035;-78
2022/08/12 09:16:19;;;;;;;0.20;0.20;;;29.40;46.50;;;;;;5094513;28;20024;-78
2022/08/12 09:18:46;;;;;;;0.30;0.30;;;29.80;46.00;;;;;;5113040;28;20020;-78
2022/08/12 09:21:12;;;;;;;0.45;0.45;;;30.10;45.00;;;;;;5113144;28;20019;-78
2022/08/12 09:23:39;;;;;;;0.20;0.20;;;30.00;44.30;;;;;;5113051;28;20016;-78
2022/08/12 09:26:07;;;;;;;0.30;0.30;;;29.90;44.90;;;;;;5113378;28;20027;-78
2022/08/12 09:28:37;;;;;;;8.10;1.90;;;30.20;43.90;;;;;;5113381;28;20466;-79
2022/08/12 09:31:04;;;;;;;3.60;0.25;;;30.20;44.60;;;;;;5113459;28;20032;-79
2022/08/12 09:33:32;;;;;;;0.63;0.20;;;29.80;44.30;;;;;;5095148;28;20030;-79
2022/08/12 09:36:04;;;;;;;0.55;0.20;;;29.40;45.00;;;;;;5095085;28;20024;-78
2022/08/12 09:38:32;;;;;;;0.52;0.20;;;29.80;44.20;;;;;;5095155;28;20016;-78
2022/08/12 09:40:58;;;;;;;0.20;0.20;;;30.00;44.90;;;;;;5095078;28;20097;-78
2022/08/12 09:46:14;;;;;;;0.20;0.20;;;29.10;44.40;;;;;;5113713;28;20023;-79
2022/08/12 09:48:40;;;;;;;0.30;0.30;;;29.10;45.40;;;;;;5095133;28;20529;-78
2022/08/12 09:51:07;;;;;;;4.47;1.65;;;28.70;46.10;;;;;;5113197;28;20028;-78
2022/08/12 09:53:33;;;;;;;0.45;0.45;;;28.70;46.70;;;;;;5113026;28;20054;-78
2022/08/12 09:56:01;;;;;;;0.17;0.15;;;29.00;46.20;;;;;;5094979;28;20059;-78
2022/08/12 09:58:28;;;;;;;0.10;0.10;;;28.80;45.80;;;;;;5095103;28;20020;-78
2022/08/12 10:01:01;;;;;;;0.73;0.43;;;28.50;47.00;;;;;;5117140;28;20019;-77
2022/08/12 10:03:30;;;;;;;0.20;0.20;;;28.60;45.80;;;;;;5117134;28;20016;-78
2022/08/12 10:05:57;;;;;;;0.10;0.10;;;29.10;46.30;;;;;;5098794;28;20189;-77
2022/08/12 10:08:26;;;;;;;0.05;0.05;;;29.20;44.50;;;;;;5116929;28;20384;-78
2022/08/12 10:13:40;;;;;;;1.70;0.70;;;29.40;43.60;;;;;;5116737;28;19948;-78
2022/08/12 10:16:33;;;;;;;0.10;0.10;;;29.40;44.20;;;;;;5116314;28;20024;-78
2022/08/12 10:19:02;;;;;;;0.30;0.25;;;29.70;43.60;;;;;;5097939;28;20106;-78
2022/08/12 10:21:40;;;;;;;0.38;0.38;;;29.60;44.20;;;;;;5116284;28;20020;-79
2022/08/12 10:24:07;;;;;;;0.30;0.30;;;29.80;44.30;;;;;;5098123;28;20020;-78
2022/08/12 10:32:11;;;;;;;0.20;0.20;;;29.60;44.10;;;;;;5116868;28;20057;-78
2022/08/12 10:34:38;;;;;;;0.00;0.00;;;29.70;43.50;;;;;;5116531;28;20020;-78
2022/08/12 10:37:04;;;;;;;0.28;0.28;;;29.70;45.20;;;;;;5116344;28;20022;-78
2022/08/12 10:39:35;;;;;;;0.10;0.10;;;29.90;44.70;;;;;;5116354;28;20015;-77
2022/08/12 10:44:51;;;;;;;0.13;0.10;;;30.40;42.90;;;;;;5116556;28;20054;-78
2022/08/12 10:47:19;;;;;;;0.30;0.30;;;30.50;43.50;;;;;;5098008;28;20020;-78
2022/08/12 10:49:48;;;;;;;0.13;0.13;;;30.60;42.00;;;;;;5097786;28;20055;-78
2022/08/12 10:52:14;;;;;;;0.88;0.30;;;30.60;42.40;;;;;;5097272;28;20104;-79
2022/08/12 10:54:41;;;;;;;0.10;0.10;;;30.80;41.90;;;;;;5115637;28;20015;-79
2022/08/12 10:57:08;;;;;;;0.75;0.22;;;31.00;41.80;;;;;;5115809;28;20137;-78
2022/08/12 10:59:33;;;;;;;0.10;0.10;;;30.90;42.70;;;;;;5115399;28;20027;-77
2022/08/12 11:02:00;;;;;;;0.15;0.15;;;;;;;;;;5115327;28;20495;-78
2022/08/12 11:04:28;;;;;;;1.23;0.80;;;31.70;41.50;;;;;;5096972;28;20028;-77
2022/08/12 11:06:55;;;;;;;0.50;0.50;;;33.60;42.30;;;;;;5115396;28;20456;-79
2022/08/12 11:09:30;;;;;;;0.17;0.17;;;31.70;42.60;;;;;;5096978;28;20035;-78
2022/08/12 11:12:05;;;;;;;0.22;0.22;;;31.70;40.80;;;;;;5115096;28;20015;-78
2022/08/12 11:14:35;;;;;;;0.20;0.20;;;31.60;40.60;;;;;;5097336;28;20027;-77
2022/08/12 11:17:06;;;;;;;0.90;0.30;;;31.70;40.10;;;;;;5097499;28;20387;-78
2022/08/12 11:19:38;;;;;;;0.20;0.20;;;31.70;42.10;;;;;;5115713;28;20024;-78
2022/08/12 11:22:04;;;;;;;1.65;0.17;;;31.40;40.30;;;;;;5115726;28;20127;-77
2022/08/12 11:24:30;;;;;;;0.30;0.30;;;;;;;;;;5097265;28;20515;-78
2022/08/12 11:26:58;;;;;;;0.10;0.10;;;31.00;40.60;;;;;;5097138;28;20396;-79
2022/08/12 11:29:26;;;;;;;0.20;0.20;;;31.10;42.20;;;;;;5115291;28;20081;-79
2022/08/12 11:31:53;;;;;;;0.10;0.10;;;31.90;41.70;;;;;;5096898;28;20070;-78
2022/08/12 11:34:19;;;;;;;0.73;0.43;;;32.60;40.50;;;;;;5096361;28;20027;-78
2022/08/12 11:37:06;;;;;;;0.20;0.20;;;33.10;39.60;;;;;;5114540;28;20027;-78
2022/08/12 11:39:32;;;;;;;0.30;0.30;;;33.50;39.70;;;;;;5096276;28;20436;-78
2022/08/12 11:42:02;;;;;;;0.60;0.22;;;33.30;38.80;;;;;;5114622;28;20016;-78
2022/08/12 11:44:28;;;;;;;0.10;0.10;;;33.60;39.90;;;;;;5114387;28;20043;-77
2022/08/12 11:46:53;;;;;;;0.20;0.20;;;34.20;38.90;;;;;;5114304;28;20544;-78
2022/08/12 11:49:25;;;;;;;0.43;0.43;;;34.80;39.20;;;;;;5113926;28;20056;-77
2022/08/12 11:51:51;;;;;;;0.17;0.17;;;;;;;;;;5096212;28;20032;-78
2022/08/12 11:54:16;;;;;;;0.80;0.47;;;35.10;37.70;;;;;;5096514;28;20051;-79
2022/08/12 11:56:42;;;;;;;0.45;0.45;;;34.50;38.20;;;;;;5114876;28;20032;-78
2022/08/12 11:59:08;;;;;;;2.20;0.47;;;34.10;39.20;;;;;;5114959;28;20098;-79
2022/08/12 12:01:33;;;;;;;0.57;0.57;;;34.20;39.40;;;;;;5114872;28;20027;-78
2022/08/12 12:03:59;;;;;;;0.32;0.32;;;33.80;40.70;;;;;;5114767;28;20414;-78
2022/08/12 12:06:25;;;;;;;0.30;0.30;;;33.60;40.40;;;;;;5096466;28;20073;-79
2022/08/12 12:08:51;;;;;;;0.30;0.30;;;33.90;38.80;;;;;;5114409;28;20027;-78
2022/08/12 12:11:17;;;;;;;0.75;0.75;;;33.70;39.20;;;;;;5114466;28;20380;-78
2022/08/12 12:13:42;;;;;;;6.55;1.85;;;34.20;39.00;;;;;;5114339;28;20059;-78
2022/08/12 12:16:08;;;;;;;0.20;0.20;;;34.70;37.40;;;;;;5096546;28;20054;-79
2022/08/12 12:18:34;;;;;;;2.00;0.75;;;34.20;39.10;;;;;;5114491;28;20482;-79
2022/08/12 12:21:02;;;;;;;0.43;0.43;;;34.10;39.00;;;;;;5114234;28;20503;-79
2022/08/12 12:23:28;;;;;;;0.10;0.10;;;34.50;38.20;;;;;;5113356;28;20166;-78
2022/08/12 12:25:55;;;;;;;1.27;0.30;;;35.40;37.70;;;;;;5114128;28;20020;-78
2022/08/12 12:28:21;;;;;;;0.43;0.30;;;35.50;37.90;;;;;;5114292;28;20024;-78
2022/08/12 12:30:47;;;;;;;0.22;0.22;;;35.00;38.20;;;;;;5095837;28;20038;-78
2022/08/12 12:33:13;;;;;;;0.20;0.20;;;34.70;40.30;;;;;;5114135;28;20016;-78
2022/08/12 12:35:40;;;;;;;0.50;0.50;;;35.00;39.10;;;;;;5114153;28;20068;-79
2022/08/12 12:38:08;;;;;;;0.60;0.32;;;34.20;38.70;;;;;;5095912;28;20049;-78
2022/08/12 12:40:35;;;;;;;0.30;0.30;;;34.20;39.30;;;;;;5095834;28;20498;-78
2022/08/12 12:43:01;;;;;;;0.43;0.40;;;34.00;39.20;;;;;;5114096;28;20120;-78
2022/08/12 12:45:27;;;;;;;0.10;0.10;;;34.30;38.00;;;;;;5095599;28;20482;-78
2022/08/12 12:47:57;;;;;;;0.30;0.30;;;35.50;38.30;;;;;;5095519;28;20475;-77
2022/08/12 12:50:26;;;;;;;1.33;0.60;;;36.30;37.40;;;;;;5095414;28;20035;-79
2022/08/12 12:52:52;;;;;;;2.05;1.05;;;36.10;35.40;;;;;;5113581;28;20123;-78
2022/08/12 12:55:19;;;;;;;1.45;0.80;;;36.10;35.90;;;;;;5113785;28;20038;-78
2022/08/12 12:57:44;;;;;;;0.20;0.20;;;36.40;36.20;;;;;;5113754;28;20016;-77
2022/08/12 13:00:14;;;;;;;0.75;0.45;;;36.20;36.80;;;;;;5095609;28;20123;-78
2022/08/12 13:02:51;;;;;;;0.30;0.30;;;35.40;38.20;;;;;;5095574;28;20066;-78
2022/08/12 13:05:18;;;;;;;0.45;0.38;;;34.70;38.90;;;;;;5113795;28;20020;-78
2022/08/12 13:07:43;;;;;;;0.43;0.28;;;35.20;36.80;;;;;;5113593;28;20049;-78
2022/08/12 13:10:09;;;;;;;0.20;0.20;;;35.80;36.80;;;;;;5113475;28;20031;-78
2022/08/12 13:12:35;;;;;;;0.20;0.20;;;35.80;35.10;;;;;;5095261;28;20085;-78
2022/08/12 13:15:03;;;;;;;0.77;0.73;;;35.90;35.40;;;;;;5113588;28;20106;-79
2022/08/12 13:17:33;;;;;;;0.50;0.50;;;36.30;35.70;;;;;;5113517;28;20028;-78
2022/08/12 13:20:06;;;;;;;0.52;0.38;;;36.20;36.00;;;;;;5095233;28;20038;-78
2022/08/12 13:22:32;;;;;;;0.98;0.40;;;35.20;37.10;;;;;;5113671;28;20448;-78
2022/08/12 13:24:58;;;;;;;0.32;0.32;;;33.90;38.60;;;;;;5113539;28;20024;-78
2022/08/12 13:27:34;;;;;;;0.50;0.45;;;33.40;39.10;;;;;;5095207;28;20438;-78
2022/08/12 13:30:02;;;;;;;0.30;0.30;;;33.00;40.00;;;;;;5113394;28;20039;-78
2022/08/12 13:32:28;;;;;;;0.50;0.50;;;33.20;39.00;;;;;;5095193;28;20114;-79
2022/08/12 13:34:59;;;;;;;0.20;0.20;;;33.60;38.90;;;;;;5116156;28;20034;-78
2022/08/12 13:37:25;;;;;;;0.70;0.50;;;34.00;38.20;;;;;;5117407;28;20041;-77
2022/08/12 13:39:51;;;;;;;0.20;0.20;;;34.90;37.70;;;;;;5099321;28;20034;-78
2022/08/12 13:42:18;;;;;;;0.20;0.20;;;35.20;37.00;;;;;;5099320;28;20016;-78
2022/08/12 13:44:44;;;;;;;0.30;0.10;;;35.60;37.40;;;;;;5099206;28;20026;-78
2022/08/12 13:47:10;;;;;;;0.20;0.20;;;35.40;36.40;;;;;;5117406;28;20103;-78
2022/08/12 13:49:36;;;;;;;0.20;0.10;;;34.80;36.00;;;;;;5117183;28;20023;-78
2022/08/12 13:52:02;;;;;;;0.55;0.35;;;35.00;35.60;;;;;;5099242;28;20034;-79
2022/08/12 13:54:28;;;;;;;0.30;0.30;;;35.30;35.70;;;;;;5117073;28;20430;-78
2022/08/12 13:56:54;;;;;;;0.30;0.30;;;35.30;36.00;;;;;;5116988;28;20369;-79
2022/08/12 13:59:20;;;;;;;0.50;0.50;;;35.80;35.90;;;;;;5098912;28;20110;-78
2022/08/12 14:01:48;;;;;;;1.45;0.40;;;36.50;35.70;;;;;;5117058;28;20379;-78
2022/08/12 14:04:14;;;;;;;;;;;36.90;35.80;;;;;;5099183;28;20106;-78
2022/08/12 14:06:40;;;;;;;0.28;0.28;;;36.50;35.10;;;;;;5117019;28;19934;-79
2022/08/12 14:09:06;;;;;;;0.20;0.20;;;34.40;36.10;;;;;;5116871;28;20104;-78
2022/08/12 14:11:32;;;;;;;0.20;0.20;;;;;;;;;;5116780;28;20047;-79
2022/08/12 14:13:59;;;;;;;0.25;0.25;;;34.20;37.30;;;;;;5098609;28;20488;-79
2022/08/12 14:16:26;;;;;;;1.65;0.28;;;34.70;38.80;;;;;;5116985;28;20047;-78
2022/08/12 14:18:53;;;;;;;2.83;1.10;;;34.60;37.50;;;;;;5098598;28;20027;-78
2022/08/12 14:21:19;;;;;;;0.30;0.30;;;34.40;38.60;;;;;;5098534;28;20020;-78
2022/08/12 14:23:54;;;;;;;0.10;0.10;;;34.40;36.70;;;;;;5116774;28;20024;-78
2022/08/12 14:26:23;;;;;;;0.20;0.20;;;35.00;36.60;;;;;;5116630;28;20020;-78
2022/08/12 14:28:50;;;;;;;0.30;0.30;;;35.10;35.70;;;;;;5098108;28;20111;-78
2022/08/12 14:31:16;;;;;;;2.08;0.52;;;35.10;35.80;;;;;;5116488;28;20379;-78
2022/08/12 14:33:47;;;;;;;0.22;0.20;;;35.40;36.10;;;;;;5117024;28;20023;-78
2022/08/12 14:36:17;;;;;;;0.22;0.22;;;34.70;36.40;;;;;;5098364;28;20031;-78
2022/08/12 14:38:44;;;;;;;0.40;0.40;;;34.30;37.10;;;;;;5098232;28;20384;-78
2022/08/12 14:41:19;;;;;;;0.47;0.30;;;34.40;37.00;;;;;;5116602;28;20019;-78
2022/08/12 14:43:47;;;;;;;8.48;2.65;;;34.70;37.10;;;;;;5116432;28;20020;-78
2022/08/12 14:46:15;;;;;;;1.23;0.10;;;34.40;36.50;;;;;;5115443;28;20024;-78